sensor_id;sensor_type;location;lat;lon;timestamp;pressure;altitude;pressure_sealevel;temperature;humidity
65384;BME280;51986;52.788;41.368;2023-02-28T00:00:37;99789.59;;;-1.33;49.52
65384;BME280;51986;52.788;41.368;2023-02-28T00:03:04;99794.06;;;-1.16;48.82
65384;BME280;51986;52.788;41.368;2023-02-28T00:05:31;99783.84;;;-1.13;48.38
65384;BME280;51986;52.788;41.368;2023-02-28T00:07:58;99797.63;;;-0.86;48.91
65384;BME280;51986;52.788;41.368;2023-02-28T00:10:28;99804.66;;;-0.69;48.57
65384;BME280;51986;52.788;41.368;2023-02-28T00:13:00;99786.81;;;-0.88;49.11
65384;BME280;51986;52.788;41.368;2023-02-28T00:15:28;99800.50;;;-1.05;49.40
65384;BME280;51986;52.788;41.368;2023-02-28T00:17:55;99810.13;;;-0.88;49.64
65384;BME280;51986;52.788;41.368;2023-02-28T00:20:22;99795.47;;;-0.93;49.03
65384;BME280;51986;52.788;41.368;2023-02-28T00:22:51;99792.88;;;-1.10;49.77
65384;BME280;51986;52.788;41.368;2023-02-28T00:25:21;99795.06;;;-1.35;49.73
65384;BME280;51986;52.788;41.368;2023-02-28T00:27:49;99792.53;;;-1.57;51.03
65384;BME280;51986;52.788;41.368;2023-02-28T00:30:18;99779.38;;;-1.69;50.25
65384;BME280;51986;52.788;41.368;2023-02-28T00:32:46;99794.69;;;-1.51;51.06
65384;BME280;51986;52.788;41.368;2023-02-28T00:35:13;99804.22;;;-1.68;50.71
65384;BME280;51986;52.788;41.368;2023-02-28T00:37:40;99803.81;;;-1.84;51.09
65384;BME280;51986;52.788;41.368;2023-02-28T00:40:08;99792.06;;;-1.90;51.92
65384;BME280;51986;52.788;41.368;2023-02-28T00:42:36;99779.59;;;-1.57;50.86
65384;BME280;51986;52.788;41.368;2023-02-28T00:45:03;99780.50;;;-1.62;50.06
65384;BME280;51986;52.788;41.368;2023-02-28T00:47:31;99784.09;;;-1.71;50.60
65384;BME280;51986;52.788;41.368;2023-02-28T00:49:59;99792.84;;;-1.59;49.99
65384;BME280;51986;52.788;41.368;2023-02-28T00:52:27;99781.69;;;-1.68;50.31
65384;BME280;51986;52.788;41.368;2023-02-28T00:54:54;99769.13;;;-1.52;50.13
65384;BME280;51986;52.788;41.368;2023-02-28T00:57:21;99776.72;;;-1.56;50.31
65384;BME280;51986;52.788;41.368;2023-02-28T00:59:48;99773.50;;;-1.61;50.12
65384;BME280;51986;52.788;41.368;2023-02-28T01:02:15;99787.41;;;-1.80;51.42
65384;BME280;51986;52.788;41.368;2023-02-28T01:04:42;99781.91;;;-1.87;50.82
65384;BME280;51986;52.788;41.368;2023-02-28T01:07:09;99774.34;;;-1.74;50.59
65384;BME280;51986;52.788;41.368;2023-02-28T01:09:36;99776.47;;;-1.77;51.32
65384;BME280;51986;52.788;41.368;2023-02-28T01:12:03;99767.72;;;-1.89;51.52
65384;BME280;51986;52.788;41.368;2023-02-28T01:14:32;99752.06;;;-1.93;50.87
65384;BME280;51986;52.788;41.368;2023-02-28T01:16:59;99790.59;;;-2.05;50.68
65384;BME280;51986;52.788;41.368;2023-02-28T01:19:26;99781.22;;;-2.01;51.29
65384;BME280;51986;52.788;41.368;2023-02-28T01:21:53;99770.16;;;-1.93;51.25
65384;BME280;51986;52.788;41.368;2023-02-28T01:24:20;99757.31;;;-1.98;50.90
65384;BME280;51986;52.788;41.368;2023-02-28T01:26:47;99788.28;;;-1.84;51.79
65384;BME280;51986;52.788;41.368;2023-02-28T01:29:15;99772.56;;;-2.19;52.56
65384;BME280;51986;52.788;41.368;2023-02-28T01:31:42;99790.47;;;-2.22;53.16
65384;BME280;51986;52.788;41.368;2023-02-28T01:34:08;99761.78;;;-2.21;52.24
65384;BME280;51986;52.788;41.368;2023-02-28T01:36:35;99770.34;;;-2.12;51.89
65384;BME280;51986;52.788;41.368;2023-02-28T01:39:02;99780.84;;;-2.08;51.83
65384;BME280;51986;52.788;41.368;2023-02-28T01:41:32;99793.31;;;-2.10;52.20
65384;BME280;51986;52.788;41.368;2023-02-28T01:47:11;99783.41;;;-1.86;52.21
65384;BME280;51986;52.788;41.368;2023-02-28T01:49:39;99813.81;;;-1.91;51.75
65384;BME280;51986;52.788;41.368;2023-02-28T01:52:06;99767.81;;;-2.25;52.37
65384;BME280;51986;52.788;41.368;2023-02-28T01:54:35;99789.84;;;-2.06;51.98
65384;BME280;51986;52.788;41.368;2023-02-28T01:57:13;99776.38;;;-1.94;51.97
65384;BME280;51986;52.788;41.368;2023-02-28T01:59:46;99792.72;;;-2.07;52.67
65384;BME280;51986;52.788;41.368;2023-02-28T02:02:17;99778.63;;;-2.23;52.57
65384;BME280;51986;52.788;41.368;2023-02-28T02:05:07;99770.75;;;-2.18;53.77
65384;BME280;51986;52.788;41.368;2023-02-28T02:07:37;99802.28;;;-2.30;54.14
65384;BME280;51986;52.788;41.368;2023-02-28T02:10:40;99785.09;;;-2.12;53.09
65384;BME280;51986;52.788;41.368;2023-02-28T02:27:23;99779.09;;;-2.44;54.19
65384;BME280;51986;52.788;41.368;2023-02-28T02:33:21;99782.25;;;-2.24;54.43
65384;BME280;51986;52.788;41.368;2023-02-28T02:35:59;99773.44;;;-2.46;54.12
65384;BME280;51986;52.788;41.368;2023-02-28T02:38:42;99794.03;;;-2.55;55.12
65384;BME280;51986;52.788;41.368;2023-02-28T02:41:17;99789.56;;;-2.26;53.58
65384;BME280;51986;52.788;41.368;2023-02-28T02:44:18;99786.78;;;-2.66;54.73
65384;BME280;51986;52.788;41.368;2023-02-28T02:46:51;99761.94;;;-2.76;55.41
65384;BME280;51986;52.788;41.368;2023-02-28T02:49:24;99773.41;;;-2.68;55.18
65384;BME280;51986;52.788;41.368;2023-02-28T02:51:55;99778.81;;;-2.92;55.59
65384;BME280;51986;52.788;41.368;2023-02-28T02:54:33;99779.56;;;-2.78;55.90
65384;BME280;51986;52.788;41.368;2023-02-28T02:57:07;99796.69;;;-2.82;55.42
65384;BME280;51986;52.788;41.368;2023-02-28T02:59:38;99779.94;;;-2.85;55.71
65384;BME280;51986;52.788;41.368;2023-02-28T03:02:09;99782.50;;;-2.35;54.33
65384;BME280;51986;52.788;41.368;2023-02-28T03:04:43;99772.66;;;-2.46;54.81
65384;BME280;51986;52.788;41.368;2023-02-28T03:07:10;99755.88;;;-2.58;55.00
65384;BME280;51986;52.788;41.368;2023-02-28T03:09:38;99778.78;;;-2.65;55.36
65384;BME280;51986;52.788;41.368;2023-02-28T03:12:09;99760.34;;;-2.49;54.94
65384;BME280;51986;52.788;41.368;2023-02-28T03:17:51;99764.16;;;-2.69;55.49
65384;BME280;51986;52.788;41.368;2023-02-28T03:23:28;99756.03;;;-2.90;55.47
65384;BME280;51986;52.788;41.368;2023-02-28T03:26:23;99760.59;;;-2.60;55.20
65384;BME280;51986;52.788;41.368;2023-02-28T03:31:31;99776.66;;;-2.63;54.77
65384;BME280;51986;52.788;41.368;2023-02-28T03:34:15;99737.72;;;-2.66;54.52
65384;BME280;51986;52.788;41.368;2023-02-28T03:36:51;99764.28;;;-2.30;54.05
65384;BME280;51986;52.788;41.368;2023-02-28T03:39:44;99747.47;;;-2.18;53.42
65384;BME280;51986;52.788;41.368;2023-02-28T03:44:43;99753.59;;;-2.37;54.45
65384;BME280;51986;52.788;41.368;2023-02-28T03:50:03;99720.72;;;-2.45;54.26
65384;BME280;51986;52.788;41.368;2023-02-28T03:52:35;99745.72;;;-2.32;54.26
65384;BME280;51986;52.788;41.368;2023-02-28T03:55:11;99766.63;;;-2.42;54.39
65384;BME280;51986;52.788;41.368;2023-02-28T04:00:21;99737.19;;;-2.41;55.23
65384;BME280;51986;52.788;41.368;2023-02-28T04:02:54;99738.06;;;-2.45;54.65
65384;BME280;51986;52.788;41.368;2023-02-28T04:05:22;99724.00;;;-2.53;54.20
65384;BME280;51986;52.788;41.368;2023-02-28T04:07:49;99743.25;;;-2.37;54.02
65384;BME280;51986;52.788;41.368;2023-02-28T04:10:16;99736.81;;;-2.48;54.11
65384;BME280;51986;52.788;41.368;2023-02-28T04:12:44;99739.75;;;-2.41;54.38
65384;BME280;51986;52.788;41.368;2023-02-28T04:15:11;99737.09;;;-2.27;52.95
65384;BME280;51986;52.788;41.368;2023-02-28T04:17:38;99730.72;;;-2.66;54.88
65384;BME280;51986;52.788;41.368;2023-02-28T04:20:05;99732.00;;;-2.41;54.51
65384;BME280;51986;52.788;41.368;2023-02-28T04:22:32;99723.47;;;-2.41;53.70
65384;BME280;51986;52.788;41.368;2023-02-28T04:24:59;99717.78;;;-2.30;53.63
65384;BME280;51986;52.788;41.368;2023-02-28T04:27:26;99695.47;;;-2.48;53.76
65384;BME280;51986;52.788;41.368;2023-02-28T04:29:53;99700.88;;;-2.36;53.54
65384;BME280;51986;52.788;41.368;2023-02-28T04:32:20;99726.06;;;-2.41;54.02
65384;BME280;51986;52.788;41.368;2023-02-28T04:34:47;99728.00;;;-2.47;54.37
65384;BME280;51986;52.788;41.368;2023-02-28T04:37:14;99714.19;;;-2.42;53.52
65384;BME280;51986;52.788;41.368;2023-02-28T04:39:42;99738.75;;;-2.31;54.21
65384;BME280;51986;52.788;41.368;2023-02-28T04:42:10;99720.53;;;-2.26;53.18
65384;BME280;51986;52.788;41.368;2023-02-28T04:44:37;99735.50;;;-2.37;53.71
65384;BME280;51986;52.788;41.368;2023-02-28T04:47:04;99724.59;;;-2.34;53.46
65384;BME280;51986;52.788;41.368;2023-02-28T04:49:31;99756.41;;;-2.47;53.32
65384;BME280;51986;52.788;41.368;2023-02-28T04:51:58;99753.66;;;-2.50;53.82
65384;BME280;51986;52.788;41.368;2023-02-28T04:54:25;99735.97;;;-2.57;54.71
65384;BME280;51986;52.788;41.368;2023-02-28T04:56:52;99751.94;;;-2.33;53.84
65384;BME280;51986;52.788;41.368;2023-02-28T04:59:19;99742.34;;;-2.41;54.20
65384;BME280;51986;52.788;41.368;2023-02-28T05:01:47;99742.09;;;-2.31;53.46
65384;BME280;51986;52.788;41.368;2023-02-28T05:04:15;99761.66;;;-2.38;53.92
65384;BME280;51986;52.788;41.368;2023-02-28T05:06:42;99758.69;;;-2.23;54.24
65384;BME280;51986;52.788;41.368;2023-02-28T05:09:09;99734.75;;;-2.37;54.12
65384;BME280;51986;52.788;41.368;2023-02-28T05:11:37;99727.75;;;-2.37;53.60
65384;BME280;51986;52.788;41.368;2023-02-28T05:14:06;99737.03;;;-2.58;54.45
65384;BME280;51986;52.788;41.368;2023-02-28T05:16:33;99738.97;;;-2.41;53.92
65384;BME280;51986;52.788;41.368;2023-02-28T05:19:00;99742.91;;;-2.44;54.47
65384;BME280;51986;52.788;41.368;2023-02-28T05:21:32;99746.28;;;-2.21;54.12
65384;BME280;51986;52.788;41.368;2023-02-28T05:24:02;99760.66;;;-2.06;53.16
65384;BME280;51986;52.788;41.368;2023-02-28T05:26:30;99750.63;;;-2.30;54.19
65384;BME280;51986;52.788;41.368;2023-02-28T05:28:57;99737.75;;;-2.21;53.76
65384;BME280;51986;52.788;41.368;2023-02-28T05:31:24;99743.31;;;-2.28;53.30
65384;BME280;51986;52.788;41.368;2023-02-28T05:33:51;99742.75;;;-1.94;52.40
65384;BME280;51986;52.788;41.368;2023-02-28T05:36:19;99743.16;;;-2.54;53.72
65384;BME280;51986;52.788;41.368;2023-02-28T05:38:50;99770.06;;;-2.69;55.33
65384;BME280;51986;52.788;41.368;2023-02-28T05:41:18;99742.69;;;-2.34;54.42
65384;BME280;51986;52.788;41.368;2023-02-28T05:43:47;99714.13;;;-2.29;54.24
65384;BME280;51986;52.788;41.368;2023-02-28T05:46:14;99730.44;;;-1.97;53.66
65384;BME280;51986;52.788;41.368;2023-02-28T05:48:42;99733.59;;;-2.00;53.55
65384;BME280;51986;52.788;41.368;2023-02-28T05:51:12;99721.88;;;-2.06;53.30
65384;BME280;51986;52.788;41.368;2023-02-28T05:53:39;99714.84;;;-1.83;53.77
65384;BME280;51986;52.788;41.368;2023-02-28T05:56:06;99705.03;;;-1.64;53.42
65384;BME280;51986;52.788;41.368;2023-02-28T05:58:33;99722.38;;;-1.95;53.35
65384;BME280;51986;52.788;41.368;2023-02-28T06:01:18;99717.25;;;-1.87;53.39
65384;BME280;51986;52.788;41.368;2023-02-28T06:03:46;99689.25;;;-1.85;53.00
65384;BME280;51986;52.788;41.368;2023-02-28T06:06:13;99694.44;;;-1.85;53.75
65384;BME280;51986;52.788;41.368;2023-02-28T06:08:40;99690.84;;;-2.06;53.51
65384;BME280;51986;52.788;41.368;2023-02-28T06:11:07;99700.66;;;-1.86;53.35
65384;BME280;51986;52.788;41.368;2023-02-28T06:13:34;99726.69;;;-1.82;53.14
65384;BME280;51986;52.788;41.368;2023-02-28T06:16:01;99701.03;;;-1.79;52.77
65384;BME280;51986;52.788;41.368;2023-02-28T06:18:28;99689.91;;;-2.10;53.48
65384;BME280;51986;52.788;41.368;2023-02-28T06:20:55;99706.78;;;-1.82;53.00
65384;BME280;51986;52.788;41.368;2023-02-28T06:23:22;99691.19;;;-1.99;52.92
65384;BME280;51986;52.788;41.368;2023-02-28T06:25:49;99697.75;;;-1.93;53.64
65384;BME280;51986;52.788;41.368;2023-02-28T06:28:16;99714.25;;;-1.71;52.75
65384;BME280;51986;52.788;41.368;2023-02-28T06:30:43;99681.19;;;-1.43;53.00
65384;BME280;51986;52.788;41.368;2023-02-28T06:33:12;99691.38;;;-1.47;51.88
65384;BME280;51986;52.788;41.368;2023-02-28T06:35:39;99681.44;;;-1.62;53.01
65384;BME280;51986;52.788;41.368;2023-02-28T06:38:06;99668.94;;;-1.60;51.96
65384;BME280;51986;52.788;41.368;2023-02-28T06:40:33;99662.38;;;-1.75;51.72
65384;BME280;51986;52.788;41.368;2023-02-28T06:43:00;99669.00;;;-1.43;52.19
65384;BME280;51986;52.788;41.368;2023-02-28T06:45:27;99666.13;;;-1.33;51.99
65384;BME280;51986;52.788;41.368;2023-02-28T06:47:54;99655.72;;;-1.67;52.07
65384;BME280;51986;52.788;41.368;2023-02-28T06:50:21;99645.06;;;-1.66;52.14
65384;BME280;51986;52.788;41.368;2023-02-28T06:52:48;99650.41;;;-1.54;51.93
65384;BME280;51986;52.788;41.368;2023-02-28T06:55:15;99651.19;;;-1.53;51.95
65384;BME280;51986;52.788;41.368;2023-02-28T06:57:42;99645.88;;;-1.39;52.01
65384;BME280;51986;52.788;41.368;2023-02-28T07:00:10;99646.88;;;-1.66;52.08
65384;BME280;51986;52.788;41.368;2023-02-28T07:02:37;99639.34;;;-1.19;51.35
65384;BME280;51986;52.788;41.368;2023-02-28T07:05:05;99637.34;;;-1.40;51.77
65384;BME280;51986;52.788;41.368;2023-02-28T07:07:32;99627.47;;;-0.86;50.73
65384;BME280;51986;52.788;41.368;2023-02-28T07:09:59;99643.31;;;-1.13;50.81
65384;BME280;51986;52.788;41.368;2023-02-28T07:12:27;99623.94;;;-1.51;51.46
65384;BME280;51986;52.788;41.368;2023-02-28T07:14:54;99629.09;;;-1.51;51.64
65384;BME280;51986;52.788;41.368;2023-02-28T07:17:21;99632.97;;;-0.96;50.84
65384;BME280;51986;52.788;41.368;2023-02-28T07:19:48;99620.16;;;-1.27;51.69
65384;BME280;51986;52.788;41.368;2023-02-28T07:22:15;99628.81;;;-0.88;50.41
65384;BME280;51986;52.788;41.368;2023-02-28T07:24:41;99626.72;;;-1.21;50.52
65384;BME280;51986;52.788;41.368;2023-02-28T07:27:10;99617.25;;;-1.00;50.65
65384;BME280;51986;52.788;41.368;2023-02-28T07:29:37;99611.59;;;-0.76;50.32
65384;BME280;51986;52.788;41.368;2023-02-28T07:32:04;99613.25;;;-0.62;50.01
65384;BME280;51986;52.788;41.368;2023-02-28T07:34:31;99614.59;;;-0.56;50.58
65384;BME280;51986;52.788;41.368;2023-02-28T07:36:58;99583.72;;;-0.79;50.47
65384;BME280;51986;52.788;41.368;2023-02-28T07:39:25;99608.56;;;-0.78;50.86
65384;BME280;51986;52.788;41.368;2023-02-28T07:41:52;99601.72;;;-0.91;50.16
65384;BME280;51986;52.788;41.368;2023-02-28T07:44:25;99592.81;;;-0.55;49.94
65384;BME280;51986;52.788;41.368;2023-02-28T07:46:53;99592.59;;;-0.41;49.57
65384;BME280;51986;52.788;41.368;2023-02-28T07:49:20;99592.06;;;-0.64;50.48
65384;BME280;51986;52.788;41.368;2023-02-28T07:51:47;99580.41;;;-0.41;49.45
65384;BME280;51986;52.788;41.368;2023-02-28T07:54:16;99587.09;;;-0.87;49.53
65384;BME280;51986;52.788;41.368;2023-02-28T07:56:43;99591.97;;;-0.85;49.77
65384;BME280;51986;52.788;41.368;2023-02-28T07:59:10;99586.44;;;-0.66;49.60
65384;BME280;51986;52.788;41.368;2023-02-28T08:01:40;99578.63;;;-0.49;49.11
65384;BME280;51986;52.788;41.368;2023-02-28T08:04:07;99580.28;;;-0.06;48.56
65384;BME280;51986;52.788;41.368;2023-02-28T08:06:36;99570.38;;;-0.13;48.97
65384;BME280;51986;52.788;41.368;2023-02-28T08:09:03;99566.91;;;-0.17;48.82
65384;BME280;51986;52.788;41.368;2023-02-28T08:11:30;99578.47;;;-0.14;48.77
65384;BME280;51986;52.788;41.368;2023-02-28T08:13:57;99560.38;;;-0.23;48.80
65384;BME280;51986;52.788;41.368;2023-02-28T08:16:27;99585.53;;;-0.24;49.30
65384;BME280;51986;52.788;41.368;2023-02-28T08:18:54;99576.88;;;-0.36;48.99
65384;BME280;51986;52.788;41.368;2023-02-28T08:21:44;99548.97;;;-0.31;48.46
65384;BME280;51986;52.788;41.368;2023-02-28T08:24:11;99556.66;;;-0.43;49.04
65384;BME280;51986;52.788;41.368;2023-02-28T08:26:38;99555.28;;;-0.11;48.46
65384;BME280;51986;52.788;41.368;2023-02-28T08:29:05;99531.53;;;-0.22;49.08
65384;BME280;51986;52.788;41.368;2023-02-28T08:31:32;99556.75;;;-0.01;48.51
65384;BME280;51986;52.788;41.368;2023-02-28T08:34:00;99549.94;;;0.15;47.89
65384;BME280;51986;52.788;41.368;2023-02-28T08:36:27;99540.03;;;-0.12;48.34
65384;BME280;51986;52.788;41.368;2023-02-28T08:38:54;99533.59;;;-0.06;48.09
65384;BME280;51986;52.788;41.368;2023-02-28T08:41:21;99547.44;;;-0.02;48.74
65384;BME280;51986;52.788;41.368;2023-02-28T08:43:48;99535.09;;;0.24;47.81
65384;BME280;51986;52.788;41.368;2023-02-28T08:46:15;99520.97;;;0.13;48.98
65384;BME280;51986;52.788;41.368;2023-02-28T08:48:42;99538.50;;;-0.13;48.95
65384;BME280;51986;52.788;41.368;2023-02-28T08:51:12;99526.34;;;-0.51;49.29
65384;BME280;51986;52.788;41.368;2023-02-28T08:53:40;99524.69;;;-0.56;50.18
65384;BME280;51986;52.788;41.368;2023-02-28T08:56:10;99524.97;;;-0.19;49.81
65384;BME280;51986;52.788;41.368;2023-02-28T08:58:37;99519.56;;;-0.05;49.17
65384;BME280;51986;52.788;41.368;2023-02-28T09:01:11;99509.81;;;0.13;48.58
65384;BME280;51986;52.788;41.368;2023-02-28T09:03:40;99514.38;;;0.37;48.00
65384;BME280;51986;52.788;41.368;2023-02-28T09:06:09;99495.41;;;0.24;48.68
65384;BME280;51986;52.788;41.368;2023-02-28T09:08:37;99497.53;;;-0.20;49.70
65384;BME280;51986;52.788;41.368;2023-02-28T09:11:04;99466.19;;;-0.06;48.58
65384;BME280;51986;52.788;41.368;2023-02-28T09:13:33;99482.44;;;0.24;47.48
65384;BME280;51986;52.788;41.368;2023-02-28T09:16:02;99454.16;;;0.10;48.09
65384;BME280;51986;52.788;41.368;2023-02-28T09:18:30;99467.41;;;-0.33;48.65
65384;BME280;51986;52.788;41.368;2023-02-28T09:20:57;99449.41;;;-0.09;48.81
65384;BME280;51986;52.788;41.368;2023-02-28T09:23:24;99457.06;;;0.09;47.98
65384;BME280;51986;52.788;41.368;2023-02-28T09:25:54;99443.47;;;-0.09;48.74
65384;BME280;51986;52.788;41.368;2023-02-28T09:28:22;99454.97;;;0.02;48.04
65384;BME280;51986;52.788;41.368;2023-02-28T09:30:51;99447.75;;;0.28;47.18
65384;BME280;51986;52.788;41.368;2023-02-28T09:33:20;99445.88;;;0.50;47.60
65384;BME280;51986;52.788;41.368;2023-02-28T09:35:49;99403.53;;;0.25;47.47
65384;BME280;51986;52.788;41.368;2023-02-28T09:38:17;99432.25;;;0.20;48.05
65384;BME280;51986;52.788;41.368;2023-02-28T09:40:53;99400.66;;;-0.15;48.40
65384;BME280;51986;52.788;41.368;2023-02-28T09:43:25;99421.31;;;-0.07;49.12
65384;BME280;51986;52.788;41.368;2023-02-28T09:48:54;99400.97;;;0.95;47.05
65384;BME280;51986;52.788;41.368;2023-02-28T09:51:37;99404.81;;;0.52;47.67
65384;BME280;51986;52.788;41.368;2023-02-28T09:54:23;99394.47;;;0.76;46.79
65384;BME280;51986;52.788;41.368;2023-02-28T09:56:58;99373.69;;;1.01;46.91
65384;BME280;51986;52.788;41.368;2023-02-28T10:04:46;99362.00;;;1.19;45.32
65384;BME280;51986;52.788;41.368;2023-02-28T10:07:24;99357.94;;;1.58;45.26
65384;BME280;51986;52.788;41.368;2023-02-28T10:09:58;99383.88;;;0.81;46.15
65384;BME280;51986;52.788;41.368;2023-02-28T10:12:29;99363.41;;;0.92;46.67
65384;BME280;51986;52.788;41.368;2023-02-28T10:14:59;99356.13;;;0.49;47.10
65384;BME280;51986;52.788;41.368;2023-02-28T10:17:36;99366.19;;;0.17;47.68
65384;BME280;51986;52.788;41.368;2023-02-28T10:20:23;99343.06;;;0.12;48.40
65384;BME280;51986;52.788;41.368;2023-02-28T10:23:16;99333.50;;;0.49;48.71
65384;BME280;51986;52.788;41.368;2023-02-28T10:25:52;99329.53;;;0.52;48.07
65384;BME280;51986;52.788;41.368;2023-02-28T10:28:21;99319.50;;;0.17;47.33
65384;BME280;51986;52.788;41.368;2023-02-28T10:30:51;99313.53;;;0.04;47.22
65384;BME280;51986;52.788;41.368;2023-02-28T10:33:31;99308.19;;;0.34;47.12
65384;BME280;51986;52.788;41.368;2023-02-28T10:35:59;99284.06;;;0.21;46.95
65384;BME280;51986;52.788;41.368;2023-02-28T10:38:36;99269.03;;;0.27;47.50
65384;BME280;51986;52.788;41.368;2023-02-28T10:43:34;99277.84;;;0.47;47.42
65384;BME280;51986;52.788;41.368;2023-02-28T10:46:13;99256.81;;;0.15;48.08
65384;BME280;51986;52.788;41.368;2023-02-28T10:48:51;99250.34;;;0.09;48.06
65384;BME280;51986;52.788;41.368;2023-02-28T10:51:24;99261.28;;;0.51;47.92
65384;BME280;51986;52.788;41.368;2023-02-28T10:53:53;99280.44;;;0.59;47.26
65384;BME280;51986;52.788;41.368;2023-02-28T10:56:29;99261.06;;;0.57;47.60
65384;BME280;51986;52.788;41.368;2023-02-28T10:59:31;99231.19;;;0.87;47.32
65384;BME280;51986;52.788;41.368;2023-02-28T11:01:58;99230.53;;;0.78;47.47
65384;BME280;51986;52.788;41.368;2023-02-28T11:07:19;99218.69;;;0.40;47.52
65384;BME280;51986;52.788;41.368;2023-02-28T11:09:52;99210.38;;;0.47;47.47
65384;BME280;51986;52.788;41.368;2023-02-28T11:12:29;99209.72;;;0.38;48.11
65384;BME280;51986;52.788;41.368;2023-02-28T11:15:05;99236.97;;;0.56;47.92
65384;BME280;51986;52.788;41.368;2023-02-28T11:17:33;99216.06;;;0.65;47.21
65384;BME280;51986;52.788;41.368;2023-02-28T11:20:05;99215.31;;;0.64;47.43
65384;BME280;51986;52.788;41.368;2023-02-28T11:22:38;99205.81;;;0.32;47.90
65384;BME280;51986;52.788;41.368;2023-02-28T11:25:36;99205.81;;;0.56;47.62
65384;BME280;51986;52.788;41.368;2023-02-28T11:28:06;99197.25;;;0.55;47.55
65384;BME280;51986;52.788;41.368;2023-02-28T11:33:52;99191.63;;;0.53;47.92
65384;BME280;51986;52.788;41.368;2023-02-28T11:36:25;99190.44;;;0.51;47.78
65384;BME280;51986;52.788;41.368;2023-02-28T11:38:54;99188.50;;;0.48;47.23
65384;BME280;51986;52.788;41.368;2023-02-28T11:41:59;99173.47;;;0.41;47.63
65384;BME280;51986;52.788;41.368;2023-02-28T11:53:01;99151.56;;;0.79;47.15
65384;BME280;51986;52.788;41.368;2023-02-28T11:56:00;99146.44;;;0.54;47.21
65384;BME280;51986;52.788;41.368;2023-02-28T12:04:25;99135.66;;;0.16;48.04
65384;BME280;51986;52.788;41.368;2023-02-28T12:23:55;99112.31;;;0.16;49.36
65384;BME280;51986;52.788;41.368;2023-02-28T12:26:41;99078.59;;;0.16;49.18
65384;BME280;51986;52.788;41.368;2023-02-28T12:29:16;99079.16;;;0.09;49.67
65384;BME280;51986;52.788;41.368;2023-02-28T12:31:59;99079.16;;;0.09;49.78
65384;BME280;51986;52.788;41.368;2023-02-28T12:34:39;99061.97;;;0.04;48.90
65384;BME280;51986;52.788;41.368;2023-02-28T12:37:15;99042.84;;;0.09;49.95
65384;BME280;51986;52.788;41.368;2023-02-28T12:39:50;99035.81;;;0.10;49.92
65384;BME280;51986;52.788;41.368;2023-02-28T12:42:49;99040.72;;;-0.13;49.53
65384;BME280;51986;52.788;41.368;2023-02-28T12:45:24;99049.75;;;-0.07;49.73
65384;BME280;51986;52.788;41.368;2023-02-28T12:48:00;99045.22;;;0.02;49.41
65384;BME280;51986;52.788;41.368;2023-02-28T12:50:32;99020.28;;;-0.03;49.75
65384;BME280;51986;52.788;41.368;2023-02-28T12:53:05;99031.53;;;-0.11;49.07
65384;BME280;51986;52.788;41.368;2023-02-28T13:01:05;99017.56;;;0.06;49.76
65384;BME280;51986;52.788;41.368;2023-02-28T13:09:14;98997.50;;;-0.09;49.19
65384;BME280;51986;52.788;41.368;2023-02-28T13:14:36;98991.97;;;0.04;49.68
65384;BME280;51986;52.788;41.368;2023-02-28T13:27:53;98953.13;;;-0.32;50.01
65384;BME280;51986;52.788;41.368;2023-02-28T13:33:31;98935.22;;;-0.50;50.76
65384;BME280;51986;52.788;41.368;2023-02-28T13:36:22;98935.34;;;-0.46;50.92
65384;BME280;51986;52.788;41.368;2023-02-28T13:39:03;98924.66;;;-0.57;50.88
65384;BME280;51986;52.788;41.368;2023-02-28T13:41:47;98906.97;;;-0.79;51.18
65384;BME280;51986;52.788;41.368;2023-02-28T13:44:20;98915.28;;;-0.74;51.49
65384;BME280;51986;52.788;41.368;2023-02-28T13:51:55;98899.72;;;-0.74;51.50
65384;BME280;51986;52.788;41.368;2023-02-28T14:06:26;98874.28;;;-1.08;51.67
65384;BME280;51986;52.788;41.368;2023-02-28T14:11:34;98842.56;;;-1.42;52.58
65384;BME280;51986;52.788;41.368;2023-02-28T14:14:03;98856.16;;;-1.33;51.88
65384;BME280;51986;52.788;41.368;2023-02-28T14:16:47;98850.22;;;-1.33;52.16
65384;BME280;51986;52.788;41.368;2023-02-28T14:19:28;98827.91;;;-1.38;52.67
65384;BME280;51986;52.788;41.368;2023-02-28T14:22:10;98840.84;;;-1.38;52.95
65384;BME280;51986;52.788;41.368;2023-02-28T14:28:02;98820.78;;;-1.53;53.94
65384;BME280;51986;52.788;41.368;2023-02-28T14:36:10;98782.59;;;-1.81;53.98
65384;BME280;51986;52.788;41.368;2023-02-28T14:38:51;98798.56;;;-1.66;54.72
65384;BME280;51986;52.788;41.368;2023-02-28T14:41:39;98810.09;;;-1.76;53.98
65384;BME280;51986;52.788;41.368;2023-02-28T14:44:18;98826.81;;;-1.61;54.16
65384;BME280;51986;52.788;41.368;2023-02-28T14:46:52;98846.00;;;-1.62;53.77
65384;BME280;51986;52.788;41.368;2023-02-28T14:49:30;98831.00;;;-1.69;53.97
65384;BME280;51986;52.788;41.368;2023-02-28T14:52:19;98844.06;;;-1.53;53.91
65384;BME280;51986;52.788;41.368;2023-02-28T14:54:53;98829.50;;;-1.58;54.01
65384;BME280;51986;52.788;41.368;2023-02-28T14:57:42;98839.03;;;-1.49;54.33
65384;BME280;51986;52.788;41.368;2023-02-28T15:00:29;98829.41;;;-1.61;54.05
65384;BME280;51986;52.788;41.368;2023-02-28T15:02:58;98838.34;;;-1.59;54.00
65384;BME280;51986;52.788;41.368;2023-02-28T15:05:34;98840.63;;;-1.57;54.35
65384;BME280;51986;52.788;41.368;2023-02-28T15:08:17;98834.97;;;-1.71;54.31
65384;BME280;51986;52.788;41.368;2023-02-28T15:11:23;98823.03;;;-1.52;53.66
65384;BME280;51986;52.788;41.368;2023-02-28T15:13:48;98839.88;;;-1.45;52.76
65384;BME280;51986;52.788;41.368;2023-02-28T15:16:24;98817.88;;;-1.52;53.14
65384;BME280;51986;52.788;41.368;2023-02-28T15:18:55;98860.91;;;-1.35;52.94
65384;BME280;51986;52.788;41.368;2023-02-28T15:21:26;98814.25;;;-1.26;52.63
65384;BME280;51986;52.788;41.368;2023-02-28T15:24:20;98834.94;;;-1.26;53.29
65384;BME280;51986;52.788;41.368;2023-02-28T15:26:57;98824.34;;;-1.33;53.46
65384;BME280;51986;52.788;41.368;2023-02-28T15:29:27;98823.50;;;-1.25;53.41
65384;BME280;51986;52.788;41.368;2023-02-28T15:32:06;98820.81;;;-1.16;52.99
65384;BME280;51986;52.788;41.368;2023-02-28T15:34:41;98823.19;;;-1.23;53.21
65384;BME280;51986;52.788;41.368;2023-02-28T15:39:58;98826.59;;;-1.07;53.30